Burnet's Hourly Summary for Wednesday, May 16, 2018
Hour Temp
(f)
RH
(%)
Solar Rad.
(MJ/m2)
Rainfall
(in)
Wind
(mph)
5/16/2018 12:00 AM 67 90 0 0 3.94
5/16/2018 1:00 AM 68 90 0 0 5.72
5/16/2018 2:00 AM 68 93 0 0 2.09
5/16/2018 3:00 AM 67 97 0 0 2.65
5/16/2018 4:00 AM 65 98 0 0 2.06
5/16/2018 5:00 AM 64 100 0 0 1.58
5/16/2018 6:00 AM 64 100 0 0 1.15
5/16/2018 7:00 AM 66 94 0.01 0 1.56
5/16/2018 8:00 AM 69 94 0.34 0 1.36
5/16/2018 9:00 AM 71 82 1.03 0 3.12
5/16/2018 10:00 AM 76 80 1.29 0 2.01
5/16/2018 11:00 AM 81 68 2.26 0 3.79
5/16/2018 12:00 PM 84 58 2.86 0 2.96
5/16/2018 1:00 PM 86 41 3.18 0 2.78
5/16/2018 2:00 PM 88 34 3.35 0 2.53
5/16/2018 3:00 PM 89 32 1.97 0 2.9
5/16/2018 4:00 PM 91 30 0.92 0 2.62
5/16/2018 5:00 PM 91 28 1.85 0 3.46
5/16/2018 6:00 PM 90 32 1.33 0 2.85
5/16/2018 7:00 PM 90 38 1.18 0 2.63
5/16/2018 8:00 PM 87 52 0.26 0 1.15
5/16/2018 9:00 PM 82 65 0.01 0 0.83
5/16/2018 10:00 PM 79 65 0 0 0.94
5/16/2018 11:00 PM 78 64 0 0 1.04
Data Summary 77 67 21.84 0.00 2.41